Terminal Aerodrome Forecast
Issued by NWS

Home | Current Version | Previous Version | Text Only | Print | Product List | Glossary On
Versions: 1 2 3 4 5 6 7 8 9 10 11 12 13 14
000
FTUS46 KMFR 262129 AAB
TAFLMT
TAF AMD
KLMT 262129Z 2621/2718 15012G20KT P6SM SCT070
     FM262300 15015G25KT P6SM VCTS SCT060CB BKN070
     FM270300 23008KT P6SM VCSH BKN070 OVC120=

USA.gov is the U.S. government's official web portal to all federal, state and local government web resources and services.